Time;durP1;ratioP1;P1;durP2;ratioP2;P2;SDS_P1;SDS_P2;PMS_P1;PMS_P2;Temp;Humidity;BMP_temperature;BMP_pressure;BME280_temperature;BME280_humidity;BME280_pressure;Samples;Min_cycle;Max_cycle;Signal;HPM_P1;HPM_P2
2021/06/20 00:01:33;;;;;;;14.13;9.95;;;19.70;81.60;;;;;;4695642;30;20109;-77
2021/06/20 00:04:00;;;;;;;13.93;11.13;;;19.70;81.70;;;;;;4666771;30;20049;-76
2021/06/20 00:06:36;;;;;;;13.05;10.13;;;19.80;82.10;;;;;;4679937;30;20057;-77
2021/06/20 00:09:08;;;;;;;12.63;9.68;;;19.80;82.20;;;;;;4693710;30;20056;-77
2021/06/20 00:11:37;;;;;;;12.23;9.90;;;19.70;82.20;;;;;;4678998;30;20546;-77
2021/06/20 00:14:05;;;;;;;16.25;10.80;;;19.80;82.30;;;;;;4694612;30;20408;-76
2021/06/20 00:16:34;;;;;;;13.23;10.48;;;19.80;82.50;;;;;;4694360;30;20057;-77
2021/06/20 00:19:02;;;;;;;13.00;10.45;;;19.80;82.50;;;;;;4696100;30;20157;-77
2021/06/20 00:21:30;;;;;;;14.10;11.95;;;19.80;82.50;;;;;;4693174;30;20105;-76
2021/06/20 00:23:57;;;;;;;14.18;11.45;;;19.80;82.70;;;;;;4694341;30;20053;-77
2021/06/20 00:26:24;;;;;;;11.85;9.30;;;19.90;82.80;;;;;;4679905;30;20076;-77
2021/06/20 00:28:51;;;;;;;11.10;8.93;;;19.80;82.70;;;;;;4679243;30;20050;-77
2021/06/20 00:31:18;;;;;;;14.13;10.43;;;19.90;82.80;;;;;;4694224;30;21619;-76
2021/06/20 00:33:45;;;;;;;11.70;9.40;;;19.90;83.00;;;;;;4680738;30;21017;-77
2021/06/20 00:36:12;;;;;;;13.57;10.32;;;19.90;83.00;;;;;;4677433;30;20045;-76
2021/06/20 00:38:39;;;;;;;11.45;9.82;;;19.80;83.10;;;;;;4679992;30;20436;-76
2021/06/20 00:41:06;;;;;;;10.07;8.48;;;19.80;83.20;;;;;;4649019;30;20056;-76
2021/06/20 00:43:33;;;;;;;11.20;9.77;;;19.90;83.20;;;;;;4662478;30;20492;-76
2021/06/20 00:46:00;;;;;;;12.68;10.13;;;19.90;83.30;;;;;;4679729;30;20525;-77
2021/06/20 00:48:28;;;;;;;12.18;9.63;;;19.90;83.40;;;;;;4685084;30;20053;-78
2021/06/20 00:50:55;;;;;;;12.82;10.00;;;19.90;83.50;;;;;;4671959;30;20100;-76
2021/06/20 00:53:22;;;;;;;12.13;9.38;;;19.90;83.50;;;;;;4693310;30;20131;-78
2021/06/20 00:55:50;;;;;;;13.18;10.05;;;19.90;83.50;;;;;;4693673;30;20053;-76
2021/06/20 00:58:24;;;;;;;12.38;9.55;;;19.90;83.50;;;;;;4693196;30;20116;-76
2021/06/20 01:00:50;;;;;;;11.45;8.57;;;20.00;83.60;;;;;;4679354;30;20112;-76
2021/06/20 01:03:18;;;;;;;10.43;8.05;;;20.00;83.60;;;;;;4683515;30;20513;-76
2021/06/20 01:05:45;;;;;;;9.95;7.40;;;20.00;83.50;;;;;;4667497;30;20077;-76
2021/06/20 01:08:13;;;;;;;9.63;6.70;;;20.10;83.50;;;;;;4682469;30;20054;-76
2021/06/20 01:10:41;;;;;;;11.50;8.35;;;20.10;83.50;;;;;;4678294;30;20041;-76
2021/06/20 01:13:12;;;;;;;9.98;7.68;;;20.10;83.50;;;;;;4692487;30;20089;-76
2021/06/20 01:15:41;;;;;;;11.15;8.10;;;20.10;83.60;;;;;;4691370;30;20056;-77
2021/06/20 01:18:09;;;;;;;9.73;7.32;;;20.20;83.80;;;;;;4692171;30;20045;-77
2021/06/20 01:20:37;;;;;;;9.65;7.50;;;20.20;83.80;;;;;;4679499;30;20057;-76
2021/06/20 01:23:05;;;;;;;9.50;6.57;;;20.20;83.80;;;;;;4683765;30;20050;-77
2021/06/20 01:25:33;;;;;;;8.82;6.75;;;20.30;83.90;;;;;;4692815;30;20045;-76
2021/06/20 01:28:09;;;;;;;9.68;7.43;;;20.30;83.90;;;;;;4691482;30;20073;-76
2021/06/20 01:30:46;;;;;;;9.93;7.10;;;20.30;83.90;;;;;;4692770;30;20899;-77
2021/06/20 01:33:15;;;;;;;10.02;7.85;;;20.30;83.90;;;;;;4683635;30;20104;-76
2021/06/20 01:35:43;;;;;;;9.48;7.35;;;20.40;84.20;;;;;;4692630;30;20136;-76
2021/06/20 01:38:11;;;;;;;8.93;6.72;;;20.40;84.20;;;;;;4692703;30;20053;-77
2021/06/20 01:40:38;;;;;;;8.80;6.82;;;20.40;84.20;;;;;;4692826;30;20514;-77
2021/06/20 01:43:06;;;;;;;8.18;6.50;;;20.40;84.30;;;;;;4676470;30;20077;-76
2021/06/20 01:45:33;;;;;;;8.40;5.95;;;20.40;84.30;;;;;;4679031;30;20454;-76
2021/06/20 01:48:00;;;;;;;8.23;6.07;;;20.50;84.30;;;;;;4692750;30;20068;-77
2021/06/20 01:50:28;;;;;;;8.88;6.28;;;20.50;84.30;;;;;;4691061;30;20046;-77
2021/06/20 01:53:13;;;;;;;9.48;7.13;;;20.50;84.30;;;;;;4677896;30;20037;-76
2021/06/20 01:55:42;;;;;;;8.48;5.88;;;20.50;84.20;;;;;;4693525;30;20108;-76
2021/06/20 01:58:12;;;;;;;9.55;6.20;;;20.50;84.30;;;;;;4693337;30;20072;-76
2021/06/20 02:00:43;;;;;;;7.45;6.00;;;20.60;84.40;;;;;;4691615;30;20072;-77
2021/06/20 02:03:13;;;;;;;7.07;5.38;;;20.60;84.40;;;;;;4677914;30;20053;-76
2021/06/20 02:05:45;;;;;;;8.10;5.95;;;20.60;84.50;;;;;;4677859;30;20058;-76
2021/06/20 02:08:13;;;;;;;7.07;5.78;;;20.60;84.50;;;;;;4690871;30;20050;-76
2021/06/20 02:10:40;;;;;;;7.68;5.93;;;20.60;84.50;;;;;;4690188;30;20069;-76
2021/06/20 02:13:07;;;;;;;6.88;5.28;;;20.60;84.60;;;;;;4663520;30;20060;-77
2021/06/20 02:15:34;;;;;;;5.82;4.45;;;20.60;84.60;;;;;;4678003;30;20107;-76
2021/06/20 02:18:02;;;;;;;6.70;5.15;;;20.60;84.70;;;;;;4689547;30;20143;-77
2021/06/20 02:20:29;;;;;;;7.53;5.78;;;20.60;84.70;;;;;;4678095;30;20475;-77
2021/06/20 02:22:56;;;;;;;7.40;5.65;;;20.60;84.80;;;;;;4662923;30;20467;-77
2021/06/20 02:25:24;;;;;;;7.70;5.63;;;20.60;84.80;;;;;;4694801;30;20049;-77
2021/06/20 02:27:53;;;;;;;8.07;5.88;;;20.60;84.90;;;;;;4692364;30;20068;-76
2021/06/20 02:30:21;;;;;;;6.63;5.03;;;20.60;84.90;;;;;;4680600;30;20037;-76
2021/06/20 02:32:52;;;;;;;7.97;5.75;;;20.60;84.90;;;;;;4694700;30;20057;-76
2021/06/20 02:35:20;;;;;;;8.27;5.43;;;20.70;84.90;;;;;;4680101;30;20080;-77
2021/06/20 02:37:49;;;;;;;7.53;5.60;;;20.70;84.80;;;;;;4691768;30;20060;-77
2021/06/20 02:40:17;;;;;;;7.43;5.47;;;20.70;84.80;;;;;;4691984;30;20171;-77
2021/06/20 02:42:45;;;;;;;8.18;5.25;;;20.80;84.90;;;;;;4678884;30;20089;-76
2021/06/20 02:45:16;;;;;;;7.90;5.65;;;20.80;84.90;;;;;;4695837;30;20058;-77
2021/06/20 02:47:45;;;;;;;6.72;5.40;;;20.80;84.90;;;;;;4689428;30;20379;-78
2021/06/20 02:50:15;;;;;;;9.10;5.70;;;20.80;85.00;;;;;;4692036;30;20050;-77
2021/06/20 02:52:43;;;;;;;8.68;6.45;;;20.80;84.90;;;;;;4694463;30;20054;-77
2021/06/20 02:55:11;;;;;;;7.75;5.93;;;20.80;84.90;;;;;;4676930;30;20049;-77
2021/06/20 02:57:39;;;;;;;8.45;5.80;;;20.80;84.90;;;;;;4663001;30;20159;-76
2021/06/20 03:00:07;;;;;;;7.47;5.88;;;20.80;84.90;;;;;;4677459;30;20041;-77
2021/06/20 03:02:34;;;;;;;7.78;6.00;;;20.80;84.90;;;;;;4664405;30;20058;-77
2021/06/20 03:05:01;;;;;;;9.43;6.85;;;20.90;85.00;;;;;;4693346;30;20089;-76
2021/06/20 03:07:28;;;;;;;9.25;6.63;;;20.90;85.00;;;;;;4690420;30;20056;-76
2021/06/20 03:09:56;;;;;;;9.70;6.88;;;20.90;85.00;;;;;;4677976;30;20077;-77
2021/06/20 03:12:23;;;;;;;8.77;7.18;;;20.90;85.00;;;;;;4693939;30;20054;-76
2021/06/20 03:14:50;;;;;;;11.18;6.70;;;20.90;85.10;;;;;;4695461;30;20049;-76
2021/06/20 03:17:18;;;;;;;11.00;7.60;;;20.90;85.10;;;;;;4680112;30;20137;-76
2021/06/20 03:19:46;;;;;;;9.45;7.10;;;20.90;85.10;;;;;;4679872;30;20081;-76
2021/06/20 03:22:13;;;;;;;8.88;6.20;;;20.90;85.20;;;;;;4664838;30;20080;-77
2021/06/20 03:24:44;;;;;;;10.18;6.75;;;20.90;85.10;;;;;;4679508;30;20046;-77
2021/06/20 03:27:11;;;;;;;11.60;7.80;;;20.90;85.10;;;;;;4681240;30;20046;-76
2021/06/20 03:29:38;;;;;;;11.02;7.93;;;20.90;85.10;;;;;;4683031;30;20045;-76
2021/06/20 03:32:07;;;;;;;10.98;8.73;;;20.90;85.10;;;;;;4693304;30;20049;-78
2021/06/20 03:34:34;;;;;;;11.23;8.50;;;20.90;85.20;;;;;;4679231;30;20141;-77
2021/06/20 03:37:02;;;;;;;10.90;8.30;;;20.90;85.20;;;;;;4680415;30;20129;-77
2021/06/20 03:39:29;;;;;;;11.90;8.85;;;20.90;85.30;;;;;;4695015;30;20573;-76
2021/06/20 03:41:57;;;;;;;12.52;8.88;;;20.90;85.40;;;;;;4679953;30;20053;-76
2021/06/20 03:44:25;;;;;;;11.70;9.05;;;20.90;85.30;;;;;;4694528;30;20054;-76
2021/06/20 03:46:52;;;;;;;13.38;9.90;;;20.90;85.50;;;;;;4694063;30;20046;-77
2021/06/20 03:49:19;;;;;;;11.75;8.80;;;20.90;85.40;;;;;;4680200;30;20458;-76
2021/06/20 03:51:46;;;;;;;15.13;11.32;;;20.80;85.40;;;;;;4683988;30;20507;-77
2021/06/20 03:54:13;;;;;;;14.10;10.65;;;20.80;85.40;;;;;;4687743;30;20436;-76
2021/06/20 03:56:40;;;;;;;16.17;12.40;;;20.70;85.50;;;;;;4692631;30;20054;-74
2021/06/20 03:59:11;;;;;;;18.05;13.23;;;20.70;85.70;;;;;;4693069;30;20053;-75
2021/06/20 04:01:38;;;;;;;15.85;12.45;;;20.60;85.70;;;;;;4677666;30;20053;-75
2021/06/20 04:04:05;;;;;;;18.33;12.85;;;20.50;85.80;;;;;;4690609;30;20049;-76
2021/06/20 04:06:34;;;;;;;19.50;14.48;;;20.50;85.90;;;;;;4693487;30;20049;-76
2021/06/20 04:09:01;;;;;;;23.15;16.95;;;20.30;86.00;;;;;;4692664;30;20120;-76
2021/06/20 04:11:28;;;;;;;24.10;18.02;;;20.30;86.20;;;;;;4694014;30;20053;-75
2021/06/20 04:13:55;;;;;;;23.95;16.65;;;20.10;86.20;;;;;;4686939;30;20411;-75
2021/06/20 04:16:22;;;;;;;20.13;14.20;;;20.00;86.30;;;;;;4676409;30;20151;-77
2021/06/20 04:18:49;;;;;;;22.13;16.25;;;19.90;86.40;;;;;;4693375;30;20054;-75
2021/06/20 04:21:16;;;;;;;20.27;14.93;;;19.90;86.60;;;;;;4677459;30;20045;-74
2021/06/20 04:23:45;;;;;;;24.83;16.50;;;19.80;86.80;;;;;;4679027;30;20080;-75
2021/06/20 04:26:12;;;;;;;18.42;13.98;;;19.80;86.80;;;;;;4677418;30;20064;-75
2021/06/20 04:28:40;;;;;;;21.13;14.88;;;19.70;86.90;;;;;;4694460;30;20057;-75
2021/06/20 04:31:08;;;;;;;21.17;14.63;;;19.60;87.10;;;;;;4676095;30;20045;-75
2021/06/20 04:33:35;;;;;;;19.08;13.50;;;19.50;87.20;;;;;;4691683;30;20076;-75
2021/06/20 04:36:03;;;;;;;16.98;12.20;;;19.50;87.20;;;;;;4680966;30;20445;-75
2021/06/20 04:38:30;;;;;;;16.90;11.77;;;19.60;87.20;;;;;;4678370;30;20053;-75
2021/06/20 04:41:03;;;;;;;15.07;10.43;;;19.60;87.10;;;;;;4677729;30;20514;-75
2021/06/20 04:46:34;;;;;;;16.20;10.63;;;19.60;87.00;;;;;;4679592;30;20064;-75
2021/06/20 04:49:06;;;;;;;17.05;11.65;;;19.70;86.80;;;;;;4678883;30;20487;-76
2021/06/20 04:51:39;;;;;;;17.15;12.10;;;19.60;86.80;;;;;;4687956;30;20054;-74
2021/06/20 04:54:11;;;;;;;18.13;13.00;;;19.60;86.80;;;;;;4690766;30;20038;-74
2021/06/20 04:56:38;;;;;;;18.23;12.67;;;19.60;86.80;;;;;;4675999;30;20054;-75
2021/06/20 04:59:06;;;;;;;20.77;13.25;;;19.60;86.90;;;;;;4690816;30;20068;-74
2021/06/20 05:01:38;;;;;;;19.60;13.77;;;19.60;86.80;;;;;;4692284;30;20049;-74
2021/06/20 05:04:06;;;;;;;20.65;13.20;;;19.60;86.80;;;;;;4674674;30;20507;-75
2021/06/20 05:06:34;;;;;;;18.35;12.65;;;19.60;86.80;;;;;;4664447;30;20054;-74
2021/06/20 05:09:01;;;;;;;18.05;12.52;;;19.60;86.70;;;;;;4675412;30;20065;-74
2021/06/20 05:11:28;;;;;;;16.20;11.48;;;19.60;86.70;;;;;;4692196;30;20057;-75
2021/06/20 05:13:55;;;;;;;16.40;11.65;;;19.70;86.70;;;;;;4661942;30;20538;-74
2021/06/20 05:16:23;;;;;;;18.60;12.40;;;19.70;86.70;;;;;;4690866;30;20045;-74
2021/06/20 05:18:50;;;;;;;17.70;11.57;;;19.70;86.60;;;;;;4690886;30;20519;-74
2021/06/20 05:21:19;;;;;;;19.83;12.63;;;19.70;86.60;;;;;;4676733;30;20512;-74
2021/06/20 05:23:47;;;;;;;17.77;12.88;;;19.70;86.60;;;;;;4661522;30;20136;-74
2021/06/20 05:26:14;;;;;;;20.75;12.55;;;19.70;86.60;;;;;;4681762;30;20112;-74
2021/06/20 05:28:43;;;;;;;20.40;14.38;;;19.70;86.60;;;;;;4692910;30;20053;-74
2021/06/20 05:31:10;;;;;;;18.10;12.40;;;19.70;86.70;;;;;;4689546;30;20049;-73
2021/06/20 05:33:38;;;;;;;22.52;14.02;;;19.70;86.70;;;;;;4676373;30;20050;-74
2021/06/20 05:36:05;;;;;;;18.60;12.57;;;19.70;86.60;;;;;;4661109;30;20060;-74
2021/06/20 05:38:32;;;;;;;19.85;13.25;;;19.70;86.70;;;;;;4675641;30;20629;-74
2021/06/20 05:40:59;;;;;;;23.33;15.20;;;19.70;86.70;;;;;;4690841;30;22315;-74
2021/06/20 05:43:27;;;;;;;18.73;12.43;;;19.70;86.70;;;;;;4674734;30;20052;-74
2021/06/20 05:45:54;;;;;;;20.52;13.60;;;19.70;86.70;;;;;;4689013;30;20084;-74
2021/06/20 05:48:21;;;;;;;22.60;14.68;;;19.70;86.60;;;;;;4693837;30;20049;-74
2021/06/20 05:50:49;;;;;;;27.10;16.58;;;19.70;86.70;;;;;;4662204;30;20053;-74
2021/06/20 05:53:16;;;;;;;21.10;14.02;;;19.70;86.80;;;;;;4676270;30;20049;-74
2021/06/20 05:55:43;;;;;;;20.50;14.07;;;19.70;86.80;;;;;;4672663;30;20586;-74
2021/06/20 05:58:11;;;;;;;19.23;12.85;;;19.70;86.80;;;;;;4689620;30;20083;-74
2021/06/20 06:00:38;;;;;;;18.73;12.77;;;19.70;86.70;;;;;;4679379;30;20407;-74
2021/06/20 06:03:05;;;;;;;19.20;11.80;;;19.70;86.70;;;;;;4690208;30;20536;-74
2021/06/20 06:05:33;;;;;;;20.65;13.85;;;19.80;86.70;;;;;;4689534;30;20060;-74
2021/06/20 06:08:00;;;;;;;21.05;13.93;;;19.80;86.70;;;;;;4676843;30;20045;-74
2021/06/20 06:10:29;;;;;;;21.15;14.43;;;19.80;86.60;;;;;;4690787;30;20128;-75
2021/06/20 06:12:58;;;;;;;19.98;12.98;;;19.80;86.60;;;;;;4672265;30;20571;-74
2021/06/20 06:15:29;;;;;;;20.05;13.45;;;19.90;86.50;;;;;;4673335;30;20049;-74
2021/06/20 06:17:57;;;;;;;20.92;12.93;;;19.90;86.40;;;;;;4671282;30;20072;-74
2021/06/20 06:20:25;;;;;;;16.90;10.95;;;19.90;86.30;;;;;;4673735;30;20046;-75
2021/06/20 06:22:52;;;;;;;17.77;11.18;;;20.00;86.30;;;;;;4672885;30;20469;-74
2021/06/20 06:25:19;;;;;;;19.45;12.07;;;20.10;86.20;;;;;;4670209;30;20122;-74
2021/06/20 06:27:48;;;;;;;16.33;10.55;;;20.10;86.00;;;;;;4657998;30;20502;-74
2021/06/20 06:30:15;;;;;;;18.83;12.88;;;20.20;86.00;;;;;;4672375;30;20516;-74
2021/06/20 06:32:44;;;;;;;18.83;11.95;;;20.20;85.90;;;;;;4686442;30;20053;-74
2021/06/20 06:35:12;;;;;;;16.73;11.65;;;20.20;85.80;;;;;;4669637;30;20168;-74
2021/06/20 06:37:40;;;;;;;17.75;11.90;;;20.20;85.90;;;;;;4673072;30;20137;-74
2021/06/20 06:40:12;;;;;;;16.05;10.70;;;20.20;85.80;;;;;;4671766;30;20808;-75
2021/06/20 06:42:39;;;;;;;15.00;9.30;;;20.20;85.80;;;;;;4672697;30;20045;-74
2021/06/20 06:45:06;;;;;;;18.27;11.40;;;20.20;85.70;;;;;;4672825;30;20058;-74
2021/06/20 06:47:34;;;;;;;18.98;11.88;;;20.30;85.60;;;;;;4676819;30;20054;-74
2021/06/20 06:50:04;;;;;;;18.75;12.52;;;20.40;85.40;;;;;;4676152;30;20042;-74
2021/06/20 06:52:31;;;;;;;18.02;11.20;;;20.40;85.00;;;;;;4676368;30;20046;-75
2021/06/20 06:54:58;;;;;;;16.52;11.10;;;20.50;84.90;;;;;;4675502;30;20046;-74
2021/06/20 06:57:27;;;;;;;13.90;9.55;;;20.60;84.70;;;;;;4676409;30;20130;-75
2021/06/20 06:59:55;;;;;;;16.83;11.02;;;20.70;84.50;;;;;;4675356;30;20062;-74
2021/06/20 07:02:24;;;;;;;17.27;10.88;;;20.90;84.40;;;;;;4675373;30;20073;-76
2021/06/20 07:04:52;;;;;;;17.10;11.48;;;21.00;84.10;;;;;;4676347;30;20053;-75
2021/06/20 07:07:26;;;;;;;19.40;13.75;;;21.10;84.40;;;;;;4677224;30;20078;-75
2021/06/20 07:09:58;;;;;;;17.00;10.90;;;21.00;83.60;;;;;;4677766;30;20104;-75
2021/06/20 07:12:29;;;;;;;16.48;10.70;;;21.00;83.70;;;;;;4683695;30;20046;-75
2021/06/20 07:14:57;;;;;;;21.50;14.53;;;20.90;83.40;;;;;;4693773;30;20050;-75
2021/06/20 07:17:24;;;;;;;21.08;12.25;;;20.90;83.40;;;;;;4692079;30;20300;-74
2021/06/20 07:19:51;;;;;;;19.02;12.43;;;20.80;83.40;;;;;;4677459;30;20045;-74
2021/06/20 07:22:19;;;;;;;21.63;13.43;;;20.80;83.50;;;;;;4694294;30;20054;-74
2021/06/20 07:24:46;;;;;;;22.83;14.98;;;20.70;83.40;;;;;;4692188;30;20061;-75
2021/06/20 07:27:13;;;;;;;22.60;16.15;;;20.70;83.30;;;;;;4677815;30;20045;-74
2021/06/20 07:29:42;;;;;;;18.48;12.30;;;20.70;83.30;;;;;;4663780;30;20050;-74
2021/06/20 07:32:09;;;;;;;18.48;12.27;;;20.70;83.30;;;;;;4692055;30;20124;-74
2021/06/20 07:34:37;;;;;;;19.27;13.32;;;20.70;83.30;;;;;;4679627;30;21795;-75
2021/06/20 07:37:04;;;;;;;21.70;14.45;;;20.70;83.20;;;;;;4689442;30;20041;-75
2021/06/20 07:39:31;;;;;;;20.73;14.52;;;20.70;83.20;;;;;;4691492;30;20499;-74
2021/06/20 07:41:59;;;;;;;17.92;12.70;;;20.70;83.20;;;;;;4676676;30;21527;-75
2021/06/20 07:44:27;;;;;;;17.60;11.90;;;20.60;83.10;;;;;;4679256;30;20050;-74
2021/06/20 07:46:54;;;;;;;16.05;11.30;;;20.70;83.10;;;;;;4691511;30;20050;-75
2021/06/20 07:49:21;;;;;;;17.35;10.98;;;20.70;83.10;;;;;;4690612;30;20431;-76
2021/06/20 07:51:48;;;;;;;16.30;11.05;;;20.80;83.10;;;;;;4676823;30;20065;-75
2021/06/20 07:54:15;;;;;;;17.13;11.02;;;21.00;82.80;;;;;;4691993;30;20081;-74
2021/06/20 07:56:42;;;;;;;16.17;10.93;;;21.10;82.40;;;;;;4677953;30;20456;-74
2021/06/20 07:59:09;;;;;;;17.00;11.50;;;21.30;82.10;;;;;;4675982;30;20113;-75
2021/06/20 08:01:37;;;;;;;17.15;10.57;;;21.30;81.80;;;;;;4692441;30;20572;-74
2021/06/20 08:04:04;;;;;;;17.50;10.57;;;21.30;81.60;;;;;;4694158;30;20049;-74
2021/06/20 08:06:32;;;;;;;14.43;8.77;;;21.30;81.60;;;;;;4676694;30;20049;-74
2021/06/20 08:08:59;;;;;;;15.48;10.23;;;21.30;81.60;;;;;;4690587;30;20045;-74
2021/06/20 08:11:27;;;;;;;12.20;8.40;;;21.30;81.60;;;;;;4679157;30;20270;-74
2021/06/20 08:13:57;;;;;;;15.63;10.52;;;21.30;81.50;;;;;;4691502;30;20053;-75
2021/06/20 08:16:25;;;;;;;13.48;9.07;;;21.30;81.20;;;;;;4683571;30;20088;-74
2021/06/20 08:18:53;;;;;;;13.18;9.05;;;21.30;81.30;;;;;;4675351;30;20120;-75
2021/06/20 08:21:20;;;;;;;11.52;7.85;;;21.30;81.30;;;;;;4690385;30;20072;-74
2021/06/20 08:23:49;;;;;;;12.18;7.93;;;21.30;81.30;;;;;;4668966;30;20139;-75
2021/06/20 08:26:18;;;;;;;14.15;8.70;;;21.30;81.20;;;;;;4666886;30;20045;-74
2021/06/20 08:28:45;;;;;;;13.38;8.70;;;21.30;81.00;;;;;;4692816;30;20147;-75
2021/06/20 08:31:12;;;;;;;12.48;8.70;;;21.30;80.90;;;;;;4677408;30;20053;-75
2021/06/20 08:33:39;;;;;;;12.05;7.70;;;21.30;80.70;;;;;;4692000;30;20080;-74
2021/06/20 08:36:07;;;;;;;12.50;7.88;;;21.40;80.60;;;;;;4695763;30;20483;-75
2021/06/20 08:38:34;;;;;;;11.98;7.45;;;21.40;80.50;;;;;;4692179;30;20057;-75
2021/06/20 08:41:02;;;;;;;9.75;6.15;;;21.40;80.40;;;;;;4676736;30;20054;-74
2021/06/20 08:43:29;;;;;;;12.52;7.32;;;21.40;80.30;;;;;;4682729;30;20450;-75
2021/06/20 08:45:56;;;;;;;11.63;7.40;;;21.50;80.30;;;;;;4691777;30;20073;-75
2021/06/20 08:48:23;;;;;;;14.90;9.48;;;21.40;80.10;;;;;;4678771;30;20116;-75
2021/06/20 08:50:52;;;;;;;13.75;9.10;;;21.40;80.00;;;;;;4693695;30;20141;-76
2021/06/20 08:53:20;;;;;;;14.82;8.77;;;21.40;79.90;;;;;;4691978;30;20940;-74
2021/06/20 08:55:49;;;;;;;14.43;8.07;;;21.40;79.80;;;;;;4691377;30;20049;-75
2021/06/20 08:58:31;;;;;;;12.65;8.43;;;21.30;79.90;;;;;;4693380;30;20081;-75
2021/06/20 09:01:01;;;;;;;13.48;8.82;;;21.30;79.80;;;;;;4679218;30;20873;-77
2021/06/20 09:03:45;;;;;;;12.02;7.45;;;21.20;79.90;;;;;;4694829;30;20048;-77
2021/06/20 09:06:16;;;;;;;12.38;6.72;;;21.20;80.00;;;;;;4694304;30;20049;-76
2021/06/20 09:08:57;;;;;;;10.95;6.40;;;21.30;80.10;;;;;;4692098;30;20353;-78
2021/06/20 09:11:45;;;;;;;11.43;7.03;;;21.40;79.80;;;;;;4688185;30;20508;-77
2021/06/20 09:14:14;;;;;;;12.80;8.07;;;21.50;79.30;;;;;;4673982;30;20050;-78
2021/06/20 09:16:53;;;;;;;13.77;8.27;;;21.60;79.00;;;;;;4689686;30;20087;-78
2021/06/20 09:19:33;;;;;;;13.10;7.93;;;21.60;78.80;;;;;;4691408;30;20068;-77
2021/06/20 09:22:05;;;;;;;11.75;8.02;;;21.70;78.60;;;;;;4693995;30;20053;-77
2021/06/20 09:24:32;;;;;;;10.43;6.82;;;21.80;78.50;;;;;;4689247;30;20108;-77
2021/06/20 09:27:00;;;;;;;10.15;6.78;;;21.90;78.10;;;;;;4680094;30;21988;-77
2021/06/20 09:29:38;;;;;;;10.40;6.93;;;22.10;77.80;;;;;;4672282;30;20136;-70
2021/06/20 09:32:09;;;;;;;10.35;7.28;;;22.30;77.20;;;;;;4689575;30;20088;-71
2021/06/20 09:34:42;;;;;;;11.32;7.40;;;22.40;76.60;;;;;;4683275;30;20127;-71
2021/06/20 09:37:10;;;;;;;9.70;6.50;;;22.60;76.40;;;;;;4688628;30;20511;-71
2021/06/20 09:39:38;;;;;;;8.82;5.78;;;22.80;76.00;;;;;;4688599;30;20103;-70
2021/06/20 09:42:07;;;;;;;7.97;5.47;;;23.10;75.60;;;;;;4688983;30;20054;-71
2021/06/20 09:44:45;;;;;;;7.28;4.93;;;23.30;75.30;;;;;;4674242;30;20057;-71
2021/06/20 09:47:14;;;;;;;8.70;5.85;;;23.50;74.90;;;;;;4687394;30;21048;-71
2021/06/20 09:49:45;;;;;;;7.95;4.30;;;23.70;74.30;;;;;;4664891;30;20136;-70
2021/06/20 09:52:13;;;;;;;7.00;5.03;;;23.80;74.30;;;;;;4678245;30;20050;-70
2021/06/20 09:54:55;;;;;;;7.18;5.03;;;24.10;74.10;;;;;;4675350;30;20072;-70
2021/06/20 09:57:23;;;;;;;7.82;5.35;;;24.20;73.50;;;;;;4687547;30;20049;-70
2021/06/20 10:00:00;;;;;;;7.82;5.38;;;24.30;73.00;;;;;;4675603;30;20518;-70
2021/06/20 10:02:41;;;;;;;7.43;5.22;;;24.40;72.70;;;;;;4689993;30;20061;-70
2021/06/20 10:05:10;;;;;;;6.93;4.88;;;24.30;72.60;;;;;;4676168;30;22030;-70
2021/06/20 10:07:38;;;;;;;8.90;5.55;;;24.10;72.50;;;;;;4689692;30;20447;-70
2021/06/20 10:10:08;;;;;;;7.78;5.22;;;23.80;72.30;;;;;;4672835;30;20046;-70
2021/06/20 10:12:36;;;;;;;6.95;5.25;;;23.70;72.40;;;;;;4693053;30;20121;-70
2021/06/20 10:15:11;;;;;;;7.82;4.38;;;23.70;72.40;;;;;;4696137;30;20045;-70
2021/06/20 10:17:44;;;;;;;7.75;5.18;;;23.70;72.60;;;;;;4696280;30;20045;-70
2021/06/20 10:20:14;;;;;;;7.03;4.18;;;23.80;72.00;;;;;;4686191;30;20052;-70
2021/06/20 10:22:44;;;;;;;5.75;3.70;;;24.00;72.00;;;;;;4689754;30;20049;-70
2021/06/20 10:25:25;;;;;;;6.38;4.25;;;24.20;71.80;;;;;;4699140;30;20561;-70
2021/06/20 10:28:13;;;;;;;5.80;4.20;;;24.50;71.00;;;;;;4703555;30;20117;-70
2021/06/20 10:30:42;;;;;;;6.47;3.50;;;24.80;70.70;;;;;;4696484;30;20439;-69
2021/06/20 10:33:23;;;;;;;5.82;3.05;;;25.00;70.50;;;;;;4684274;30;20037;-69
2021/06/20 10:36:01;;;;;;;7.15;4.05;;;25.10;69.90;;;;;;4697039;30;20128;-70
2021/06/20 10:38:33;;;;;;;4.80;3.10;;;25.20;69.60;;;;;;4699794;30;20052;-70
2021/06/20 10:41:00;;;;;;;5.55;3.78;;;25.20;69.30;;;;;;4691595;30;20418;-69
2021/06/20 10:43:27;;;;;;;5.32;3.42;;;25.30;69.00;;;;;;4685401;30;20482;-70
2021/06/20 10:45:54;;;;;;;5.30;3.38;;;25.30;68.80;;;;;;4707019;30;20085;-70
2021/06/20 10:48:23;;;;;;;5.18;3.88;;;25.50;68.40;;;;;;4685310;30;20050;-74
2021/06/20 10:50:56;;;;;;;4.82;3.28;;;25.60;67.60;;;;;;4698438;30;20045;-74
2021/06/20 10:53:24;;;;;;;4.00;2.72;;;25.70;67.40;;;;;;4702730;30;20115;-73
2021/06/20 10:55:51;;;;;;;5.13;3.17;;;25.70;67.10;;;;;;4705302;30;20534;-74
2021/06/20 10:58:21;;;;;;;6.18;3.28;;;25.80;66.70;;;;;;4698233;30;20164;-72
2021/06/20 11:00:50;;;;;;;4.55;3.05;;;25.80;66.90;;;;;;4670215;30;20148;-71
2021/06/20 11:03:28;;;;;;;6.50;3.95;;;25.80;66.80;;;;;;4685056;30;20049;-71
2021/06/20 11:06:16;;;;;;;8.10;3.65;;;25.90;66.00;;;;;;4704969;30;20546;-70
2021/06/20 11:09:04;;;;;;;5.82;3.58;;;25.90;65.90;;;;;;4704001;30;20045;-71
2021/06/20 11:11:51;;;;;;;4.93;3.15;;;26.10;65.20;;;;;;4696985;30;20467;-70
2021/06/20 11:14:19;;;;;;;5.03;3.65;;;25.90;65.10;;;;;;4687948;30;20067;-70
2021/06/20 11:16:51;;;;;;;4.68;2.90;;;25.80;64.90;;;;;;4698066;30;20470;-70
2021/06/20 11:19:23;;;;;;;5.22;3.75;;;25.80;64.90;;;;;;4674859;30;20053;-72
2021/06/20 11:21:58;;;;;;;5.63;4.10;;;25.70;64.30;;;;;;4690703;30;20057;-71
2021/06/20 11:24:28;;;;;;;5.60;3.75;;;25.70;63.70;;;;;;4687879;30;20049;-71
2021/06/20 11:27:01;;;;;;;4.00;2.75;;;25.70;64.10;;;;;;4685808;30;20058;-71
2021/06/20 11:29:56;;;;;;;5.38;3.35;;;25.60;64.40;;;;;;4698011;30;20057;-71
2021/06/20 11:32:34;;;;;;;4.32;2.72;;;25.60;64.30;;;;;;4693797;30;20074;-71
2021/06/20 11:35:05;;;;;;;5.25;3.25;;;25.60;64.20;;;;;;4675407;30;20057;-72
2021/06/20 11:37:37;;;;;;;4.17;2.57;;;25.60;63.90;;;;;;4703153;30;20061;-72
2021/06/20 11:40:06;;;;;;;;;;;25.50;63.90;;;;;;4688494;30;20300;-71
2021/06/20 11:42:38;;;;;;;3.92;2.42;;;25.60;64.40;;;;;;4681631;30;19954;-71
2021/06/20 11:45:11;;;;;;;5.20;2.88;;;25.70;63.70;;;;;;4677827;30;20050;-71
2021/06/20 11:47:44;;;;;;;3.40;1.92;;;26.00;63.00;;;;;;4689950;30;20064;-71
2021/06/20 11:50:15;;;;;;;3.17;1.80;;;26.40;62.50;;;;;;4677548;30;20411;-71
2021/06/20 11:52:48;;;;;;;5.05;2.55;;;26.80;62.20;;;;;;4707159;30;20049;-72
2021/06/20 11:55:21;;;;;;;5.57;4.05;;;27.00;61.40;;;;;;4698219;30;20041;-71
2021/06/20 11:57:50;;;;;;;5.13;4.25;;;27.10;60.70;;;;;;4682637;30;20487;-72
2021/06/20 12:00:23;;;;;;;5.18;3.20;;;27.10;60.00;;;;;;4671279;30;20137;-71
2021/06/20 12:03:06;;;;;;;4.88;3.35;;;26.90;60.60;;;;;;4681369;30;20141;-72
2021/06/20 12:05:42;;;;;;;5.78;4.03;;;26.90;60.90;;;;;;4702303;30;20060;-72
2021/06/20 12:08:09;;;;;;;5.40;3.95;;;26.60;60.50;;;;;;4689125;30;20451;-72
2021/06/20 12:10:40;;;;;;;4.85;3.28;;;26.70;60.30;;;;;;4685267;30;20077;-72
2021/06/20 12:13:07;;;;;;;5.25;3.65;;;26.90;60.20;;;;;;4690480;30;20128;-72
2021/06/20 12:15:37;;;;;;;8.60;3.88;;;27.00;58.90;;;;;;4682865;30;20049;-73
2021/06/20 12:18:12;;;;;;;4.05;3.00;;;27.00;58.70;;;;;;4702577;30;20054;-73
2021/06/20 12:20:51;;;;;;;4.63;2.95;;;26.90;59.20;;;;;;4696707;30;20053;-78
2021/06/20 12:23:26;;;;;;;4.45;3.17;;;26.80;59.50;;;;;;4693423;30;20061;-71
2021/06/20 12:25:54;;;;;;;3.35;2.58;;;26.50;59.20;;;;;;4700551;30;20068;-70
2021/06/20 12:28:21;;;;;;;3.80;2.50;;;26.30;59.80;;;;;;4673233;30;20081;-71
2021/06/20 12:30:51;;;;;;;3.42;2.42;;;26.20;59.90;;;;;;4676131;30;20088;-71
2021/06/20 12:33:21;;;;;;;3.63;2.05;;;26.60;59.90;;;;;;4682219;30;20059;-72
2021/06/20 12:35:59;;;;;;;4.18;2.63;;;26.80;59.20;;;;;;4684221;30;20105;-71
2021/06/20 12:38:29;;;;;;;3.38;1.80;;;27.00;58.70;;;;;;4669260;30;20046;-72
2021/06/20 12:40:58;;;;;;;2.80;1.67;;;27.20;58.50;;;;;;4687774;30;20049;-72
2021/06/20 12:43:25;;;;;;;3.58;2.17;;;27.10;58.60;;;;;;4671161;30;20054;-71
2021/06/20 12:46:05;;;;;;;2.88;1.80;;;26.90;58.60;;;;;;4687431;30;20079;-72
2021/06/20 12:48:39;;;;;;;2.60;1.70;;;27.40;58.20;;;;;;4687279;30;20046;-73
2021/06/20 12:51:09;;;;;;;2.38;1.60;;;28.30;57.60;;;;;;4684606;30;20111;-73
2021/06/20 12:53:42;;;;;;;3.22;1.77;;;29.30;56.30;;;;;;4700019;30;20041;-73